Time;durP1;ratioP1;P1;durP2;ratioP2;P2;SDS_P1;SDS_P2;PMS_P1;PMS_P2;Temp;Humidity;BMP_temperature;BMP_pressure;BME280_temperature;BME280_humidity;BME280_pressure;Samples;Min_cycle;Max_cycle;Signal;HPM_P1;HPM_P2
2023/09/04 00:01:24;;;;;;;12.48;5.90;;;;;;;;;;4881087;29;20055;-81
2023/09/04 00:04:04;;;;;;;12.88;5.93;;;;;;;;;;4886475;29;20037;-81
2023/09/04 00:06:40;;;;;;;12.55;5.90;;;;;;;;;;4897445;29;20060;-82
2023/09/04 00:09:17;;;;;;;11.95;5.75;;;;;;;;;;4898551;29;20372;-82
2023/09/04 00:11:51;;;;;;;14.38;6.28;;;;;;;;;;4898018;29;20048;-81
2023/09/04 00:14:23;;;;;;;11.70;5.43;;;;;;;;;;4883397;29;20059;-80
2023/09/04 00:16:59;;;;;;;11.70;5.50;;;;;;;;;;4899730;29;20041;-82
2023/09/04 00:19:36;;;;;;;8.82;4.60;;;;;;;;;;4900618;29;20056;-82
2023/09/04 00:22:07;;;;;;;10.82;5.05;;;;;;;;;;4890404;29;20056;-83
2023/09/04 00:24:44;;;;;;;7.63;4.13;;;;;;;;;;4891165;29;20045;-86
2023/09/04 00:27:19;;;;;;;10.45;4.82;;;;;;;;;;4881589;29;20040;-82
2023/09/04 00:29:51;;;;;;;9.35;4.13;;;;;;;;;;4896203;29;20046;-82
2023/09/04 00:32:27;;;;;;;9.20;3.92;;;;;;;;;;4894373;29;20048;-81
2023/09/04 00:35:04;;;;;;;9.55;4.25;;;;;;;;;;4883619;29;20480;-82
2023/09/04 00:37:37;;;;;;;6.60;3.63;;;;;;;;;;4913452;29;20048;-81
2023/09/04 00:40:09;;;;;;;8.02;3.85;;;;;;;;;;4897811;29;20139;-80
2023/09/04 00:42:40;;;;;;;9.57;3.50;;;;;;;;;;4899217;29;20068;-82
2023/09/04 00:45:16;;;;;;;6.43;3.33;;;;;;;;;;4913053;29;20511;-83
2023/09/04 00:47:51;;;;;;;7.88;3.05;;;;;;;;;;4913291;29;20052;-83
2023/09/04 00:50:23;;;;;;;8.73;3.28;;;;;;;;;;4898735;29;20037;-82
2023/09/04 00:52:58;;;;;;;6.70;2.85;;;;;;;;;;4893838;29;20052;-81
2023/09/04 00:55:35;;;;;;;6.72;3.05;;;;;;;;;;4912937;29;20064;-81
2023/09/04 00:58:09;;;;;;;6.55;3.03;;;;;;;;;;4913187;29;20373;-82
2023/09/04 01:00:44;;;;;;;6.50;3.28;;;;;;;;;;4886524;29;20044;-81
2023/09/04 01:03:15;;;;;;;7.00;2.95;;;;;;;;;;4882656;29;20048;-80
2023/09/04 01:05:49;;;;;;;9.15;3.42;;;;;;;;;;4881353;29;20135;-80
2023/09/04 01:08:22;;;;;;;6.55;3.13;;;;;;;;;;4899050;29;20045;-81
2023/09/04 01:11:12;;;;;;;10.75;3.25;;;;;;;;;;4899117;29;20052;-80
2023/09/04 01:13:57;;;;;;;8.05;3.20;;;;;;;;;;4896528;29;20048;-80
2023/09/04 01:16:30;;;;;;;8.13;3.60;;;;;;;;;;4882116;29;20047;-80
2023/09/04 01:19:04;;;;;;;8.35;3.58;;;;;;;;;;4899301;29;20041;-80
2023/09/04 01:21:42;;;;;;;8.27;3.25;;;;;;;;;;4898674;29;20044;-79
2023/09/04 01:24:14;;;;;;;7.35;3.28;;;;;;;;;;4882502;29;20051;-80
2023/09/04 01:27:03;;;;;;;7.57;2.97;;;;;;;;;;4881484;29;20056;-80
2023/09/04 01:30:07;;;;;;;8.13;2.95;;;;;;;;;;4881692;29;20032;-79
2023/09/04 01:32:49;;;;;;;5.30;3.08;;;;;;;;;;4897259;29;20060;-81
2023/09/04 01:35:22;;;;;;;6.38;2.90;;;;;;;;;;4898446;29;20060;-81
2023/09/04 01:37:59;;;;;;;6.60;3.08;;;;;;;;;;4897909;29;20067;-80
2023/09/04 01:40:35;;;;;;;5.38;2.55;;;;;;;;;;4898139;29;20392;-81
2023/09/04 01:43:05;;;;;;;6.13;3.03;;;;;;;;;;4898551;29;20048;-80
2023/09/04 01:45:37;;;;;;;8.10;3.10;;;;;;;;;;4898097;29;20048;-82
2023/09/04 01:48:12;;;;;;;7.88;3.13;;;;;;;;;;4882766;29;20511;-80
2023/09/04 01:50:47;;;;;;;6.65;3.22;;;;;;;;;;4880780;29;20045;-83
2023/09/04 01:53:20;;;;;;;7.68;3.17;;;;;;;;;;4881432;29;20063;-83
2023/09/04 01:55:50;;;;;;;11.15;3.10;;;;;;;;;;4896470;29;20047;-81
2023/09/04 01:58:23;;;;;;;8.65;2.88;;;;;;;;;;4896526;29;20045;-83
2023/09/04 02:00:56;;;;;;;7.40;3.28;;;;;;;;;;4879268;29;20338;-82
2023/09/04 02:03:27;;;;;;;9.02;3.35;;;;;;;;;;4879988;29;20056;-80
2023/09/04 02:05:58;;;;;;;;;;;;;;;;;;4880965;29;20067;-81
2023/09/04 02:08:30;;;;;;;5.80;3.03;;;;;;;;;;4882068;29;19926;-80
2023/09/04 02:11:02;;;;;;;5.78;3.63;;;;;;;;;;4916812;29;20052;-82
2023/09/04 02:13:36;;;;;;;7.75;3.05;;;;;;;;;;4915563;29;20048;-81
2023/09/04 02:16:12;;;;;;;7.30;3.22;;;;;;;;;;4914754;29;20048;-80
2023/09/04 02:18:44;;;;;;;7.47;3.15;;;;;;;;;;4880660;29;20049;-82
2023/09/04 02:21:18;;;;;;;5.43;2.85;;;;;;;;;;4897824;29;20049;-82
2023/09/04 02:23:50;;;;;;;6.47;3.08;;;;;;;;;;4898690;29;20048;-82
2023/09/04 02:26:20;;;;;;;7.75;2.97;;;;;;;;;;4881284;29;20045;-81
2023/09/04 02:28:52;;;;;;;9.48;3.42;;;;;;;;;;4900404;29;20048;-83
2023/09/04 02:31:23;;;;;;;10.38;3.33;;;;;;;;;;4899263;29;20060;-85
2023/09/04 02:33:56;;;;;;;7.78;3.35;;;;;;;;;;4899450;29;20047;-83
2023/09/04 02:36:27;;;;;;;6.30;3.25;;;;;;;;;;4899781;29;20055;-83
2023/09/04 02:39:00;;;;;;;5.90;3.40;;;;;;;;;;4882787;29;20056;-82
2023/09/04 02:41:33;;;;;;;8.38;3.97;;;;;;;;;;4898965;29;20425;-87
2023/09/04 02:44:06;;;;;;;7.70;3.35;;;;;;;;;;4898618;29;20067;-84
2023/09/04 02:46:36;;;;;;;8.07;3.90;;;;;;;;;;4898685;29;20045;-83
2023/09/04 02:49:07;;;;;;;8.30;3.75;;;;;;;;;;4898900;29;20052;-84
2023/09/04 02:51:38;;;;;;;10.43;3.72;;;;;;;;;;4899165;29;20053;-83
2023/09/04 02:54:09;;;;;;;;;;;;;;;;;;4899071;29;20056;-83
2023/09/04 02:56:39;;;;;;;8.98;3.83;;;;;;;;;;4898652;29;19926;-86
2023/09/04 02:59:11;;;;;;;7.25;3.03;;;;;;;;;;4881384;29;20044;-85
2023/09/04 03:01:42;;;;;;;7.97;3.60;;;;;;;;;;4898890;29;20048;-83
2023/09/04 03:04:14;;;;;;;7.85;3.72;;;;;;;;;;4896977;29;20053;-85
2023/09/04 03:06:44;;;;;;;7.25;3.90;;;;;;;;;;4898392;29;20040;-83
2023/09/04 03:09:15;;;;;;;9.18;3.58;;;;;;;;;;4899014;29;20044;-84
2023/09/04 03:11:46;;;;;;;7.85;3.70;;;;;;;;;;4866471;29;20056;-83
2023/09/04 03:14:17;;;;;;;7.03;3.70;;;;;;;;;;4880293;29;20044;-84
2023/09/04 03:16:48;;;;;;;6.50;4.38;;;;;;;;;;4896960;29;20052;-85
2023/09/04 03:19:18;;;;;;;7.97;3.75;;;;;;;;;;4896644;29;20052;-84
2023/09/04 03:21:50;;;;;;;6.78;3.58;;;;;;;;;;4866227;29;20381;-83
2023/09/04 03:24:21;;;;;;;7.43;3.33;;;;;;;;;;4896936;29;20052;-84
2023/09/04 03:26:52;;;;;;;7.13;2.75;;;;;;;;;;4896370;29;20041;-82
2023/09/04 03:29:22;;;;;;;5.07;2.83;;;;;;;;;;4880935;29;20049;-82
2023/09/04 03:31:54;;;;;;;7.95;3.20;;;;;;;;;;4898702;29;20432;-84
2023/09/04 03:34:26;;;;;;;6.55;3.10;;;;;;;;;;4880648;29;20052;-84
2023/09/04 03:36:59;;;;;;;6.28;3.13;;;;;;;;;;4880846;29;20053;-83
2023/09/04 03:39:34;;;;;;;8.27;3.25;;;;;;;;;;4898181;29;20040;-83
2023/09/04 03:42:06;;;;;;;8.68;3.65;;;;;;;;;;4880864;29;20072;-85
2023/09/04 03:44:37;;;;;;;7.32;3.22;;;;;;;;;;4881002;29;20395;-83
2023/09/04 03:47:13;;;;;;;18.45;3.38;;;;;;;;;;4881109;29;20049;-84
2023/09/04 03:49:42;;;;;;;6.72;2.92;;;;;;;;;;4896446;29;20396;-83
2023/09/04 03:52:15;;;;;;;;;;;;;;;;;;4898858;29;20037;-83
2023/09/04 03:54:46;;;;;;;9.95;3.47;;;;;;;;;;4896740;29;20270;-83
2023/09/04 03:57:18;;;;;;;7.22;3.30;;;;;;;;;;4879994;29;20061;-85
2023/09/04 03:59:53;;;;;;;6.90;3.33;;;;;;;;;;4880844;29;20048;-81
2023/09/04 04:02:27;;;;;;;6.07;3.22;;;;;;;;;;4880507;29;20060;-83
2023/09/04 04:05:01;;;;;;;8.32;3.17;;;;;;;;;;4897768;29;20044;-83
2023/09/04 04:07:31;;;;;;;8.25;3.58;;;;;;;;;;4896061;29;20053;-86
2023/09/04 04:10:02;;;;;;;10.02;3.28;;;;;;;;;;4895731;29;20064;-84
2023/09/04 04:12:39;;;;;;;8.45;3.08;;;;;;;;;;4880351;29;20048;-83
2023/09/04 04:15:11;;;;;;;7.22;3.30;;;;;;;;;;4880018;29;20064;-82
2023/09/04 04:17:44;;;;;;;6.57;3.22;;;;;;;;;;4897970;29;20040;-83
2023/09/04 04:20:17;;;;;;;6.88;3.10;;;;;;;;;;4866372;29;20052;-82
2023/09/04 04:22:49;;;;;;;9.52;3.30;;;;;;;;;;4880103;29;20408;-83
2023/09/04 04:25:20;;;;;;;6.88;3.30;;;;;;;;;;4895991;29;20064;-83
2023/09/04 04:27:52;;;;;;;7.43;3.08;;;;;;;;;;4883555;29;20376;-83
2023/09/04 04:30:22;;;;;;;7.13;3.13;;;;;;;;;;4901340;29;20044;-83
2023/09/04 04:32:57;;;;;;;11.05;3.38;;;;;;;;;;4869509;29;20151;-83
2023/09/04 04:35:30;;;;;;;;;;;;;;;;;;4902035;29;20068;-82
2023/09/04 04:38:01;;;;;;;7.45;3.85;;;;;;;;;;4901237;29;20286;-83
2023/09/04 04:40:33;;;;;;;8.73;3.63;;;;;;;;;;4884205;29;20048;-82
2023/09/04 04:43:06;;;;;;;6.72;3.25;;;;;;;;;;4883796;29;20053;-81
2023/09/04 04:45:37;;;;;;;6.40;3.90;;;;;;;;;;4868737;29;20060;-86
2023/09/04 04:48:09;;;;;;;6.00;3.58;;;;;;;;;;4869209;29;20060;-83
2023/09/04 04:50:39;;;;;;;7.85;3.33;;;;;;;;;;4883937;29;20059;-82
2023/09/04 04:53:09;;;;;;;8.23;3.85;;;;;;;;;;4901285;29;20037;-81
2023/09/04 04:55:40;;;;;;;8.85;4.28;;;;;;;;;;4898785;29;20511;-83
2023/09/04 04:58:13;;;;;;;7.85;4.18;;;;;;;;;;4883990;29;20048;-83
2023/09/04 05:00:43;;;;;;;9.02;4.40;;;;;;;;;;4883866;29;20041;-83
2023/09/04 05:03:15;;;;;;;7.55;4.07;;;;;;;;;;4883648;29;20055;-85
2023/09/04 05:05:48;;;;;;;6.65;3.53;;;;;;;;;;4898258;29;20045;-85
2023/09/04 05:08:23;;;;;;;9.55;4.50;;;;;;;;;;4884015;29;20048;-83
2023/09/04 05:11:04;;;;;;;10.68;4.53;;;;;;;;;;4883324;29;20045;-85
2023/09/04 05:13:40;;;;;;;12.13;4.13;;;;;;;;;;4868785;29;20041;-82
2023/09/04 05:16:12;;;;;;;9.77;4.35;;;;;;;;;;4898669;29;20048;-81
2023/09/04 05:18:43;;;;;;;11.65;4.35;;;;;;;;;;4883365;29;20051;-82
2023/09/04 05:21:14;;;;;;;7.53;4.40;;;;;;;;;;4882762;29;20044;-81
2023/09/04 05:23:47;;;;;;;7.38;4.00;;;;;;;;;;4900659;29;20465;-82
2023/09/04 05:26:17;;;;;;;8.73;4.05;;;;;;;;;;4882820;29;20048;-82
2023/09/04 05:28:47;;;;;;;9.55;4.15;;;;;;;;;;4900333;29;20036;-83
2023/09/04 05:31:17;;;;;;;11.05;4.30;;;;;;;;;;4899840;29;20047;-84
2023/09/04 05:33:48;;;;;;;11.73;4.68;;;;;;;;;;4899950;29;20044;-82
2023/09/04 05:36:21;;;;;;;10.15;4.50;;;;;;;;;;4899870;29;20045;-84
2023/09/04 05:38:52;;;;;;;8.88;4.05;;;;;;;;;;4883077;29;20040;-83
2023/09/04 05:41:25;;;;;;;8.35;4.45;;;;;;;;;;4883589;29;20067;-84
2023/09/04 05:43:56;;;;;;;12.75;4.55;;;;;;;;;;4900111;29;20484;-83
2023/09/04 05:46:26;;;;;;;8.48;4.38;;;;;;;;;;4899822;29;20067;-85
2023/09/04 05:48:58;;;;;;;9.85;4.72;;;;;;;;;;4900172;29;20562;-84
2023/09/04 05:51:31;;;;;;;7.57;3.95;;;;;;;;;;4882923;29;20052;-83
2023/09/04 05:54:01;;;;;;;9.88;4.60;;;;;;;;;;4899538;29;20040;-83
2023/09/04 05:56:31;;;;;;;8.98;5.18;;;;;;;;;;4882235;29;20048;-86
2023/09/04 05:59:05;;;;;;;10.23;4.88;;;;;;;;;;4882979;29;20048;-86
2023/09/04 06:01:36;;;;;;;8.43;4.28;;;;;;;;;;4899757;29;20048;-85
2023/09/04 06:04:07;;;;;;;7.32;4.60;;;;;;;;;;4899538;29;20043;-85
2023/09/04 06:06:38;;;;;;;7.97;4.68;;;;;;;;;;4900183;29;20044;-85
2023/09/04 06:09:10;;;;;;;7.40;4.60;;;;;;;;;;4883351;29;20065;-85
2023/09/04 06:11:47;;;;;;;9.45;4.65;;;;;;;;;;4899616;29;20053;-83
2023/09/04 06:14:19;;;;;;;8.57;4.32;;;;;;;;;;4899204;29;20051;-83
2023/09/04 06:16:49;;;;;;;11.13;4.85;;;;;;;;;;4881919;29;20058;-84
2023/09/04 06:19:20;;;;;;;9.68;5.18;;;;;;;;;;4899606;29;20063;-85
2023/09/04 06:21:51;;;;;;;7.30;4.43;;;;;;;;;;4899687;29;20420;-83
2023/09/04 06:24:22;;;;;;;10.38;5.30;;;;;;;;;;4899099;29;20044;-82
2023/09/04 06:26:52;;;;;;;11.73;4.85;;;;;;;;;;4882778;29;20407;-83
2023/09/04 06:29:22;;;;;;;9.65;5.00;;;;;;;;;;4881503;29;20060;-85
2023/09/04 06:31:54;;;;;;;8.95;4.47;;;;;;;;;;4899095;29;20049;-82
2023/09/04 06:34:25;;;;;;;10.63;4.65;;;;;;;;;;4898478;29;20048;-82
2023/09/04 06:36:57;;;;;;;8.85;4.78;;;;;;;;;;4898702;29;20045;-82
2023/09/04 06:39:27;;;;;;;11.13;4.78;;;;;;;;;;4899103;29;20055;-82
2023/09/04 06:42:00;;;;;;;10.55;4.53;;;;;;;;;;4898851;29;20048;-82
2023/09/04 06:44:33;;;;;;;9.35;4.57;;;;;;;;;;4897578;29;20055;-83
2023/09/04 06:47:06;;;;;;;10.05;5.00;;;;;;;;;;4898867;29;20045;-84
2023/09/04 06:49:36;;;;;;;8.48;4.78;;;;;;;;;;4897578;29;20114;-84
2023/09/04 06:52:09;;;;;;;7.30;4.47;;;;;;;;;;4882452;29;20048;-83
2023/09/04 06:54:42;;;;;;;9.63;5.00;;;;;;;;;;4897495;29;20044;-83
2023/09/04 06:57:12;;;;;;;8.63;5.03;;;;;;;;;;4897617;29;20052;-87
2023/09/04 06:59:43;;;;;;;8.55;4.93;;;;;;;;;;4882175;29;20040;-82
2023/09/04 07:02:17;;;;;;;10.07;5.00;;;;;;;;;;4898898;29;20060;-82
2023/09/04 07:04:51;;;;;;;10.80;5.72;;;;;;;;;;4898625;29;20049;-83
2023/09/04 07:07:22;;;;;;;10.38;5.22;;;;;;;;;;4882533;29;20389;-83
2023/09/04 07:09:51;;;;;;;10.70;4.90;;;;;;;;;;4898289;29;20056;-83
2023/09/04 07:12:23;;;;;;;11.52;5.05;;;;;;;;;;4881450;29;20524;-81
2023/09/04 07:14:56;;;;;;;9.88;5.13;;;;;;;;;;4897658;29;20061;-82
2023/09/04 07:17:26;;;;;;;9.75;5.97;;;;;;;;;;4898901;29;20071;-82
2023/09/04 07:19:58;;;;;;;11.75;5.55;;;;;;;;;;4881460;29;20048;-84
2023/09/04 07:22:29;;;;;;;9.45;5.30;;;;;;;;;;4898565;29;20376;-82
2023/09/04 07:24:59;;;;;;;10.13;5.13;;;;;;;;;;4880641;29;20045;-81
2023/09/04 07:27:31;;;;;;;11.68;5.70;;;;;;;;;;4899039;29;20048;-82
2023/09/04 07:30:01;;;;;;;10.77;6.10;;;;;;;;;;4896706;29;20053;-83
2023/09/04 07:32:33;;;;;;;11.05;5.40;;;;;;;;;;4898462;29;20051;-83
2023/09/04 07:35:03;;;;;;;11.10;5.68;;;;;;;;;;4908142;29;20052;-83
2023/09/04 07:37:37;;;;;;;11.98;5.65;;;;;;;;;;4890719;29;20054;-84
2023/09/04 07:40:08;;;;;;;12.73;6.40;;;;;;;;;;4921871;29;20029;-85
2023/09/04 07:42:42;;;;;;;13.65;6.82;;;;;;;;;;4905126;29;20041;-82
2023/09/04 07:45:16;;;;;;;12.35;5.85;;;;;;;;;;4921603;29;20044;-83
2023/09/04 07:47:50;;;;;;;11.80;6.25;;;;;;;;;;4921694;29;20032;-84
2023/09/04 07:50:24;;;;;;;10.98;6.22;;;;;;;;;;4921731;29;20040;-86
2023/09/04 07:52:56;;;;;;;12.68;6.28;;;;;;;;;;5005959;23;21388;-82
2023/09/04 07:55:35;;;;;;;12.60;5.88;;;;;;;;;;4979067;28;20035;-84
2023/09/04 07:58:07;;;;;;;11.48;6.68;;;;;;;;;;4979018;28;20051;-85
2023/09/04 08:00:49;;;;;;;15.43;6.95;;;;;;;;;;4959365;28;20062;-84
2023/09/04 08:03:20;;;;;;;12.07;6.38;;;;;;;;;;4959043;29;20047;-82
2023/09/04 08:05:54;;;;;;;11.85;6.10;;;;;;;;;;4958892;29;20039;-83
2023/09/04 08:08:26;;;;;;;10.23;5.82;;;;;;;;;;4959470;29;20043;-85
2023/09/04 08:10:58;;;;;;;12.52;6.53;;;;;;;;;;4957546;29;20047;-85
2023/09/04 08:13:28;;;;;;;10.55;5.97;;;;;;;;;;4958830;29;20047;-86
2023/09/04 08:15:59;;;;;;;10.95;5.78;;;;;;;;;;4925409;29;20058;-88
2023/09/04 08:18:31;;;;;;;10.68;6.00;;;;;;;;;;4941639;29;20035;-85
2023/09/04 08:21:03;;;;;;;9.73;6.03;;;;;;;;;;4958543;29;20046;-84
2023/09/04 08:23:33;;;;;;;12.52;6.60;;;;;;;;;;4956162;29;20047;-85
2023/09/04 08:26:06;;;;;;;10.30;6.40;;;;;;;;;;4957610;29;20054;-84
2023/09/04 08:28:41;;;;;;;11.98;6.22;;;;;;;;;;4955597;29;20075;-87
2023/09/04 08:31:13;;;;;;;12.43;6.70;;;;;;;;;;4957536;29;20043;-85
2023/09/04 08:33:43;;;;;;;10.07;6.13;;;;;;;;;;4957236;29;20474;-83
2023/09/04 08:36:15;;;;;;;11.52;6.82;;;;;;;;;;4958470;29;20047;-87
2023/09/04 08:38:48;;;;;;;12.02;6.88;;;;;;;;;;4957361;29;20055;-84
2023/09/04 08:41:21;;;;;;;11.55;6.40;;;;;;;;;;4956435;29;20050;-84
2023/09/04 08:43:53;;;;;;;12.88;6.00;;;;;;;;;;4957016;29;20390;-84
2023/09/04 08:46:24;;;;;;;12.95;6.05;;;;;;;;;;4958050;29;20047;-84
2023/09/04 08:49:01;;;;;;;11.45;6.13;;;;;;;;;;4956530;29;20497;-83
2023/09/04 08:51:32;;;;;;;12.75;5.78;;;;;;;;;;4958117;29;20043;-85
2023/09/04 08:54:04;;;;;;;9.65;5.55;;;;;;;;;;4955490;29;20493;-85
2023/09/04 08:56:36;;;;;;;11.15;6.13;;;;;;;;;;4958171;29;20070;-82
2023/09/04 08:59:10;;;;;;;10.68;6.13;;;;;;;;;;4958132;29;20043;-84
2023/09/04 09:01:42;;;;;;;9.93;6.43;;;;;;;;;;4957891;29;20046;-84
2023/09/04 09:04:12;;;;;;;11.52;6.25;;;;;;;;;;4957809;29;20084;-82
2023/09/04 09:06:44;;;;;;;11.07;5.90;;;;;;;;;;4957727;29;20047;-84
2023/09/04 09:09:16;;;;;;;11.98;6.38;;;;;;;;;;4957411;29;20040;-82
2023/09/04 09:11:53;;;;;;;11.00;6.78;;;;;;;;;;4958477;28;20035;-84
2023/09/04 09:14:27;;;;;;;12.15;6.93;;;;;;;;;;4955262;29;20429;-84
2023/09/04 09:17:10;;;;;;;9.50;5.53;;;;;;;;;;4941207;29;20050;-82
2023/09/04 09:19:43;;;;;;;18.52;6.53;;;;;;;;;;4957413;29;20497;-83
2023/09/04 09:22:22;;;;;;;11.63;6.45;;;;;;;;;;4940348;29;20386;-82
2023/09/04 09:25:01;;;;;;;11.30;6.32;;;;;;;;;;4957386;29;20039;-83
2023/09/04 09:27:34;;;;;;;18.60;7.55;;;;;;;;;;4955952;29;20051;-85
2023/09/04 09:30:05;;;;;;;19.75;7.90;;;;;;;;;;4957179;29;20363;-87
2023/09/04 09:32:37;;;;;;;12.73;6.95;;;;;;;;;;4957923;29;20070;-83
2023/09/04 09:35:10;;;;;;;13.70;7.13;;;;;;;;;;4955927;29;20478;-83
2023/09/04 09:37:45;;;;;;;14.45;7.03;;;;;;;;;;4939636;29;20046;-82
2023/09/04 09:40:15;;;;;;;;;;;;;;;;;;4957296;29;20043;-82
2023/09/04 09:42:45;;;;;;;11.55;5.32;;;;;;;;;;4956988;29;20269;-83
2023/09/04 09:45:20;;;;;;;10.85;6.20;;;;;;;;;;4956956;29;20046;-82
2023/09/04 09:47:53;;;;;;;12.27;6.22;;;;;;;;;;4956329;29;20051;-81
2023/09/04 09:50:25;;;;;;;10.82;6.00;;;;;;;;;;4957426;29;20375;-81
2023/09/04 09:53:02;;;;;;;19.05;6.25;;;;;;;;;;4959653;28;20061;-82
2023/09/04 09:55:35;;;;;;;11.55;6.35;;;;;;;;;;4975828;28;20058;-81
2023/09/04 09:58:09;;;;;;;13.18;6.43;;;;;;;;;;4975566;28;20046;-81
2023/09/04 10:00:41;;;;;;;15.52;6.60;;;;;;;;;;4976473;28;20039;-81
2023/09/04 10:03:13;;;;;;;12.88;6.68;;;;;;;;;;4976398;28;20478;-81
2023/09/04 10:05:44;;;;;;;10.70;6.10;;;;;;;;;;4975552;28;20042;-81
2023/09/04 10:08:15;;;;;;;12.68;6.80;;;;;;;;;;4975653;28;20038;-80
2023/09/04 10:10:48;;;;;;;11.50;6.45;;;;;;;;;;4976207;28;20049;-83
2023/09/04 10:13:28;;;;;;;11.55;6.82;;;;;;;;;;4975639;28;20054;-84
2023/09/04 10:16:04;;;;;;;12.02;6.90;;;;;;;;;;4975827;28;20041;-83
2023/09/04 10:18:39;;;;;;;11.25;6.18;;;;;;;;;;4972541;28;20042;-82
2023/09/04 10:21:15;;;;;;;15.32;6.70;;;;;;;;;;4962928;28;20047;-83
2023/09/04 10:23:58;;;;;;;13.60;7.03;;;;;;;;;;4971596;28;20039;-83
2023/09/04 10:27:00;;;;;;;13.00;6.82;;;;;;;;;;4954377;28;20054;-79
2023/09/04 10:30:08;;;;;;;12.68;6.47;;;;;;;;;;4969892;28;20046;-79
2023/09/04 10:32:39;;;;;;;14.20;6.90;;;;;;;;;;4940597;29;20062;-79
2023/09/04 10:35:10;;;;;;;13.65;6.90;;;;;;;;;;4955422;29;20133;-79
2023/09/04 10:37:42;;;;;;;12.73;7.13;;;;;;;;;;4954717;29;20043;-79
2023/09/04 10:40:15;;;;;;;14.75;6.75;;;;;;;;;;4936852;29;20399;-79
2023/09/04 10:42:48;;;;;;;13.60;7.30;;;;;;;;;;4953775;29;20050;-80
2023/09/04 10:45:19;;;;;;;;;;;;;;;;;;4953973;29;20042;-79
2023/09/04 10:47:52;;;;;;;12.93;6.85;;;;;;;;;;4953744;29;19918;-78
2023/09/04 10:50:37;;;;;;;13.10;6.82;;;;;;;;;;4971623;28;20061;-78
2023/09/04 10:53:08;;;;;;;14.27;7.63;;;;;;;;;;4974154;28;20050;-79
2023/09/04 10:56:11;;;;;;;13.60;7.70;;;;;;;;;;4973790;28;20486;-80
2023/09/04 10:59:01;;;;;;;17.00;8.13;;;;;;;;;;4972931;28;20034;-80
2023/09/04 11:01:39;;;;;;;23.52;13.40;;;;;;;;;;4977145;28;20066;-80
2023/09/04 11:04:32;;;;;;;17.33;8.63;;;;;;;;;;4973835;28;20054;-80
2023/09/04 11:07:21;;;;;;;14.80;8.82;;;;;;;;;;4956788;28;20069;-80
2023/09/04 11:10:07;;;;;;;15.13;8.48;;;;;;;;;;4973686;28;20457;-79
2023/09/04 11:12:43;;;;;;;14.30;8.65;;;;;;;;;;4973624;28;20470;-80
2023/09/04 11:15:16;;;;;;;13.73;8.55;;;;;;;;;;4973948;28;20070;-80
2023/09/04 11:17:50;;;;;;;15.50;7.88;;;;;;;;;;4973350;28;20038;-81
2023/09/04 11:20:27;;;;;;;15.38;7.90;;;;;;;;;;4973511;28;20043;-81
2023/09/04 11:23:00;;;;;;;11.60;7.18;;;;;;;;;;4973969;28;20042;-79
2023/09/04 11:25:32;;;;;;;13.05;7.55;;;;;;;;;;4956526;28;20049;-79
2023/09/04 11:28:06;;;;;;;16.30;8.05;;;;;;;;;;4973063;28;20405;-80
2023/09/04 11:30:36;;;;;;;14.88;8.43;;;;;;;;;;4954007;28;20047;-79
2023/09/04 11:33:10;;;;;;;13.55;8.65;;;;;;;;;;4937283;29;20635;-81
2023/09/04 11:35:45;;;;;;;12.85;7.30;;;;;;;;;;4953357;29;20047;-78
2023/09/04 11:38:26;;;;;;;11.45;7.10;;;;;;;;;;4954195;29;20051;-78
2023/09/04 11:40:57;;;;;;;11.60;6.70;;;;;;;;;;4954208;29;20048;-79
2023/09/04 11:43:29;;;;;;;14.35;7.15;;;;;;;;;;4920727;29;20051;-80
2023/09/04 11:45:59;;;;;;;11.60;7.10;;;;;;;;;;4954631;29;20043;-78
2023/09/04 11:48:30;;;;;;;13.13;7.15;;;;;;;;;;4953618;29;20054;-79
2023/09/04 11:51:00;;;;;;;11.00;7.00;;;;;;;;;;4953865;29;20120;-78
2023/09/04 11:53:31;;;;;;;11.80;6.72;;;;;;;;;;4953641;29;20058;-79
2023/09/04 11:56:07;;;;;;;11.32;6.65;;;;;;;;;;4954056;29;20043;-80
2023/09/04 11:58:39;;;;;;;11.15;6.68;;;;;;;;;;4953890;29;20032;-82
2023/09/04 12:01:09;;;;;;;13.90;7.00;;;;;;;;;;4954411;29;20054;-81
2023/09/04 12:03:41;;;;;;;10.65;6.43;;;;;;;;;;4953611;29;20043;-80
2023/09/04 12:06:13;;;;;;;11.95;7.00;;;;;;;;;;4959338;28;20049;-80
2023/09/04 12:08:46;;;;;;;10.55;5.90;;;;;;;;;;4974096;28;20047;-81
2023/09/04 12:11:18;;;;;;;11.57;6.78;;;;;;;;;;4972745;28;20043;-81
2023/09/04 12:13:49;;;;;;;12.70;6.82;;;;;;;;;;4972671;28;20042;-80
2023/09/04 12:16:27;;;;;;;10.95;6.28;;;;;;;;;;4974555;28;20054;-79
2023/09/04 12:19:00;;;;;;;17.40;6.80;;;;;;;;;;4974205;28;20055;-81
2023/09/04 12:21:32;;;;;;;12.95;6.68;;;;;;;;;;4974133;28;20470;-81
2023/09/04 12:24:03;;;;;;;12.07;6.90;;;;;;;;;;4973166;28;20054;-79
2023/09/04 12:26:34;;;;;;;11.40;6.50;;;;;;;;;;4974227;28;20462;-79
2023/09/04 12:29:06;;;;;;;13.85;6.43;;;;;;;;;;4973793;28;20042;-80
2023/09/04 12:31:37;;;;;;;10.30;6.88;;;;;;;;;;4974285;28;20043;-82
2023/09/04 12:34:10;;;;;;;10.10;6.03;;;;;;;;;;4973628;28;20050;-79
2023/09/04 12:36:42;;;;;;;11.25;6.80;;;;;;;;;;4974268;28;20039;-79
2023/09/04 12:39:13;;;;;;;11.93;7.05;;;;;;;;;;4974280;28;20043;-79
2023/09/04 12:41:44;;;;;;;10.90;6.57;;;;;;;;;;4973861;28;20054;-79
2023/09/04 12:44:14;;;;;;;12.30;6.50;;;;;;;;;;4973707;28;20042;-79
2023/09/04 12:46:45;;;;;;;10.88;6.60;;;;;;;;;;4956417;28;20047;-81
2023/09/04 12:49:16;;;;;;;11.85;6.85;;;;;;;;;;4977096;28;20054;-78
2023/09/04 12:51:47;;;;;;;12.85;6.63;;;;;;;;;;4977826;28;20045;-79
2023/09/04 12:54:17;;;;;;;10.40;5.65;;;;;;;;;;4977217;28;20051;-78
2023/09/04 12:56:48;;;;;;;11.77;6.90;;;;;;;;;;4977299;28;20042;-81
2023/09/04 12:59:18;;;;;;;11.52;7.43;;;;;;;;;;4977395;28;20042;-79
2023/09/04 13:01:49;;;;;;;12.32;6.95;;;;;;;;;;4959645;28;20046;-79
2023/09/04 13:04:21;;;;;;;13.32;7.40;;;;;;;;;;4976940;28;20118;-80
2023/09/04 13:06:52;;;;;;;12.55;7.10;;;;;;;;;;4977071;28;20047;-79
2023/09/04 13:09:24;;;;;;;11.35;6.57;;;;;;;;;;4976640;28;20054;-78
2023/09/04 13:12:00;;;;;;;10.27;7.25;;;;;;;;;;4976770;28;20042;-81
2023/09/04 13:14:33;;;;;;;14.00;7.22;;;;;;;;;;4960183;28;20142;-79
2023/09/04 13:17:04;;;;;;;;;;;;;;;;;;4977067;28;20042;-77
2023/09/04 13:19:34;;;;;;;11.00;7.50;;;;;;;;;;4977059;28;19918;-81
2023/09/04 13:22:05;;;;;;;11.18;6.75;;;;;;;;;;4976955;28;20053;-79
2023/09/04 13:24:37;;;;;;;15.38;7.68;;;;;;;;;;4976675;28;20050;-78
2023/09/04 13:27:10;;;;;;;11.13;6.78;;;;;;;;;;4976911;28;20065;-79
2023/09/04 13:29:43;;;;;;;13.40;7.00;;;;;;;;;;4976513;28;20042;-80
2023/09/04 13:32:14;;;;;;;10.98;7.35;;;;;;;;;;4976548;28;20049;-78
2023/09/04 13:34:49;;;;;;;14.02;7.38;;;;;;;;;;4976480;28;20386;-81
2023/09/04 13:37:22;;;;;;;13.63;7.90;;;;;;;;;;4976557;28;20042;-80
2023/09/04 13:39:53;;;;;;;11.98;7.05;;;;;;;;;;4976177;28;20041;-80
2023/09/04 13:42:22;;;;;;;14.68;7.47;;;;;;;;;;4976633;28;20035;-80
2023/09/04 13:44:54;;;;;;;12.68;7.65;;;;;;;;;;4976399;28;20047;-79
2023/09/04 13:47:26;;;;;;;13.70;7.50;;;;;;;;;;4976354;28;20046;-82
2023/09/04 13:50:01;;;;;;;12.80;7.47;;;;;;;;;;4976116;28;20039;-80
2023/09/04 13:52:32;;;;;;;13.35;7.53;;;;;;;;;;4975650;28;20050;-80
2023/09/04 13:55:02;;;;;;;12.80;7.20;;;;;;;;;;4976377;28;20042;-79
2023/09/04 13:57:33;;;;;;;13.57;8.30;;;;;;;;;;4976448;28;20046;-82
2023/09/04 14:00:05;;;;;;;11.93;7.30;;;;;;;;;;4958459;28;20051;-80
2023/09/04 14:02:38;;;;;;;13.02;7.57;;;;;;;;;;4975854;28;20054;-80
2023/09/04 14:05:11;;;;;;;11.93;7.55;;;;;;;;;;4975636;28;20039;-84
2023/09/04 14:07:45;;;;;;;12.57;7.82;;;;;;;;;;4975874;28;20039;-81
2023/09/04 14:10:16;;;;;;;13.32;7.78;;;;;;;;;;4975418;28;20046;-80
2023/09/04 14:12:47;;;;;;;15.65;7.63;;;;;;;;;;4975675;28;20050;-79
2023/09/04 14:15:18;;;;;;;14.57;7.53;;;;;;;;;;4942580;28;20050;-82
2023/09/04 14:17:50;;;;;;;11.90;7.80;;;;;;;;;;4976061;28;20050;-80
2023/09/04 14:20:23;;;;;;;13.68;7.65;;;;;;;;;;4975919;28;20049;-79
2023/09/04 14:22:57;;;;;;;15.80;7.95;;;;;;;;;;4975542;28;20054;-80
2023/09/04 14:25:28;;;;;;;13.02;7.47;;;;;;;;;;4975548;28;20050;-82
2023/09/04 14:28:01;;;;;;;14.02;7.80;;;;;;;;;;4975189;28;20042;-78
2023/09/04 14:30:34;;;;;;;13.18;7.85;;;;;;;;;;4975326;28;20047;-80
2023/09/04 14:33:05;;;;;;;12.15;7.65;;;;;;;;;;4974982;28;20042;-79
2023/09/04 14:35:36;;;;;;;12.48;7.85;;;;;;;;;;4975129;28;20392;-82
2023/09/04 14:38:12;;;;;;;24.88;8.52;;;;;;;;;;4975383;28;20054;-80
2023/09/04 14:40:48;;;;;;;14.32;8.38;;;;;;;;;;4974477;28;20046;-80
2023/09/04 14:43:19;;;;;;;14.73;8.73;;;;;;;;;;4957541;28;20062;-79
2023/09/04 14:45:49;;;;;;;14.30;8.25;;;;;;;;;;4958287;28;20058;-80
2023/09/04 14:48:39;;;;;;;15.68;8.88;;;;;;;;;;4974763;28;20042;-80
2023/09/04 14:51:14;;;;;;;13.63;8.15;;;;;;;;;;4975349;28;20354;-83
2023/09/04 14:53:52;;;;;;;13.73;8.82;;;;;;;;;;4975147;28;20047;-82
2023/09/04 14:56:27;;;;;;;14.30;8.15;;;;;;;;;;4957870;28;20046;-82
2023/09/04 14:58:59;;;;;;;13.70;8.48;;;;;;;;;;4974917;28;20043;-82
2023/09/04 15:01:30;;;;;;;15.48;9.30;;;;;;;;;;4975090;28;20046;-81
2023/09/04 15:04:02;;;;;;;16.48;8.50;;;;;;;;;;4975329;28;20043;-81
2023/09/04 15:06:33;;;;;;;15.40;9.00;;;;;;;;;;4958051;28;20047;-81
2023/09/04 15:09:06;;;;;;;15.10;8.95;;;;;;;;;;4974368;28;20045;-82
2023/09/04 15:11:37;;;;;;;;;;;;;;;;;;4974476;28;20054;-84
2023/09/04 15:14:08;;;;;;;19.38;9.38;;;;;;;;;;4957610;28;19991;-80